createdAt,value
2023-05-03T00:01:53.970Z,3.77
2023-05-03T00:04:57.465Z,3.69
2023-05-03T00:08:00.659Z,3.59
2023-05-03T00:11:03.036Z,3.50
2023-05-03T00:14:05.404Z,3.48
2023-05-03T00:17:07.834Z,3.48
2023-05-03T00:20:10.482Z,3.44
2023-05-03T00:23:12.956Z,3.37
2023-05-03T00:26:15.504Z,3.32
2023-05-03T00:29:21.222Z,3.29
2023-05-03T00:32:23.815Z,3.26
2023-05-03T00:35:28.165Z,3.19
2023-05-03T00:38:31.520Z,3.18
2023-05-03T00:41:33.882Z,3.04
2023-05-03T00:44:36.233Z,2.99
2023-05-03T00:47:39.298Z,2.95
2023-05-03T00:50:42.106Z,2.95
2023-05-03T00:53:44.832Z,2.85
2023-05-03T00:56:51.493Z,2.71
2023-05-03T00:59:54.909Z,2.85
2023-05-03T01:02:57.291Z,2.85
2023-05-03T01:06:16.812Z,2.72
2023-05-03T01:09:34.048Z,2.85
2023-05-03T01:12:49.536Z,2.88
2023-05-03T01:16:07.361Z,2.85
2023-05-03T01:19:20.271Z,2.83
2023-05-03T01:22:31.346Z,2.79
2023-05-03T01:25:33.769Z,2.78
2023-05-03T01:28:36.686Z,2.70
2023-05-03T01:32:04.418Z,2.64
2023-05-03T01:35:16.896Z,2.57
2023-05-03T01:38:19.502Z,2.52
2023-05-03T01:41:22.469Z,2.44
2023-05-03T01:44:25.688Z,2.41
2023-05-03T01:47:28.448Z,2.42
2023-05-03T01:50:30.794Z,2.49
2023-05-03T01:53:33.177Z,2.64
2023-05-03T01:56:37.058Z,2.71
2023-05-03T01:59:39.388Z,2.70
2023-05-03T02:02:42.363Z,2.67
2023-05-03T02:05:44.758Z,2.66
2023-05-03T02:08:47.508Z,2.61
2023-05-03T02:11:51.270Z,2.72
2023-05-03T02:14:53.605Z,2.67
2023-05-03T02:17:56.161Z,2.60
2023-05-03T02:20:58.611Z,2.64
2023-05-03T02:24:01.152Z,2.64
2023-05-03T02:27:04.912Z,2.62
2023-05-03T02:30:08.064Z,2.55
2023-05-03T02:33:15.996Z,2.45
2023-05-03T02:36:19.145Z,2.59
2023-05-03T02:39:21.617Z,2.58
2023-05-03T02:42:24.149Z,2.60
2023-05-03T02:45:26.753Z,2.41
2023-05-03T02:48:29.573Z,2.28
2023-05-03T02:51:32.677Z,2.29
2023-05-03T02:54:35.153Z,2.15
2023-05-03T02:57:43.497Z,2.17
2023-05-03T03:00:48.807Z,2.17
2023-05-03T03:03:51.682Z,2.12
2023-05-03T03:06:54.442Z,2.04
2023-05-03T03:09:56.899Z,1.98
2023-05-03T03:12:59.280Z,1.99
2023-05-03T03:16:09.228Z,2.01
2023-05-03T03:19:11.763Z,2.11
2023-05-03T03:22:14.141Z,2.12
2023-05-03T03:25:16.570Z,2.27
2023-05-03T03:28:19.027Z,2.30
2023-05-03T03:31:26.016Z,2.63
2023-05-03T03:34:30.901Z,2.71
2023-05-03T03:37:33.444Z,2.70
2023-05-03T03:40:36.207Z,3.37
2023-05-03T03:43:38.689Z,3.37
2023-05-03T03:46:45.709Z,2.97
2023-05-03T03:49:48.976Z,2.79
2023-05-03T03:52:51.618Z,2.82
2023-05-03T03:55:54.894Z,2.88
2023-05-03T03:58:59.300Z,2.95
2023-05-03T04:02:02.179Z,3.01
2023-05-03T04:05:04.809Z,3.18
2023-05-03T04:08:07.848Z,3.29
2023-05-03T04:11:15.217Z,3.44
2023-05-03T04:14:26.764Z,3.36
2023-05-03T04:17:29.504Z,3.44
2023-05-03T04:20:34.192Z,3.47
2023-05-03T04:23:38.421Z,3.55
2023-05-03T04:26:44.289Z,3.49
2023-05-03T04:29:53.362Z,3.88
2023-05-03T04:32:58.672Z,3.92
2023-05-03T04:36:02.815Z,3.94
2023-05-03T04:39:06.464Z,4.21
2023-05-03T04:42:09.635Z,4.20
2023-05-03T04:45:14.677Z,4.81
2023-05-03T04:48:18.276Z,5.07
2023-05-03T04:51:20.903Z,5.56
2023-05-03T04:54:24.742Z,6.15
2023-05-03T04:57:27.180Z,6.14
2023-05-03T05:00:30.993Z,6.51
2023-05-03T05:03:39.697Z,5.72
2023-05-03T05:06:47.192Z,5.85
2023-05-03T05:09:54.853Z,6.04
2023-05-03T05:12:58.187Z,6.18
2023-05-03T05:16:01.393Z,7.05
2023-05-03T05:19:04.389Z,6.79
2023-05-03T05:22:06.930Z,7.53
2023-05-03T05:25:18.490Z,7.90
2023-05-03T05:28:22.143Z,8.22
2023-05-03T05:31:25.421Z,8.25
2023-05-03T05:34:28.999Z,8.63
2023-05-03T05:37:32.388Z,8.58
2023-05-03T05:40:38.740Z,8.50
2023-05-03T05:43:41.206Z,8.54
2023-05-03T05:46:43.695Z,8.63
2023-05-03T05:49:46.993Z,8.82
2023-05-03T05:52:53.832Z,9.17
2023-05-03T05:55:57.817Z,8.87
2023-05-03T05:59:01.872Z,8.78
2023-05-03T06:02:05.803Z,8.88
2023-05-03T06:05:08.807Z,8.96
2023-05-03T06:08:12.313Z,9.29
2023-05-03T06:11:14.828Z,9.72
2023-05-03T06:14:20.718Z,9.89
2023-05-03T06:17:26.078Z,9.96
2023-05-03T06:20:29.041Z,10.07
2023-05-03T06:23:33.557Z,9.80
2023-05-03T06:26:37.426Z,9.65
2023-05-03T06:29:40.552Z,10.01
2023-05-03T06:32:43.863Z,10.13
2023-05-03T06:35:48.001Z,10.02
2023-05-03T06:38:52.078Z,10.00
2023-05-03T06:41:54.618Z,10.06
2023-05-03T06:44:57.018Z,10.12
2023-05-03T06:47:59.612Z,10.16
2023-05-03T06:51:02.039Z,9.97
2023-05-03T06:54:09.892Z,9.79
2023-05-03T06:57:14.435Z,9.55
2023-05-03T07:00:17.300Z,9.72
2023-05-03T07:03:19.896Z,9.60
2023-05-03T07:06:23.670Z,9.44
2023-05-03T07:09:41.550Z,9.32
2023-05-03T07:12:45.574Z,9.19
2023-05-03T07:15:48.060Z,9.62
2023-05-03T07:18:50.422Z,9.70
2023-05-03T07:21:52.954Z,9.63
2023-05-03T07:24:55.957Z,9.67
2023-05-03T07:27:58.339Z,9.84
2023-05-03T07:31:00.780Z,9.84
2023-05-03T07:34:03.286Z,9.70
2023-05-03T07:37:05.950Z,9.88
2023-05-03T07:40:09.896Z,10.10
2023-05-03T07:43:12.471Z,9.90
2023-05-03T07:46:14.918Z,9.94
2023-05-03T07:49:17.456Z,9.97
2023-05-03T07:52:20.163Z,10.20
2023-05-03T07:55:22.970Z,10.21
2023-05-03T07:58:38.865Z,10.27
2023-05-03T08:01:42.196Z,10.45
2023-05-03T08:04:44.725Z,10.56
2023-05-03T08:07:47.165Z,10.44
2023-05-03T08:10:49.692Z,10.71
2023-05-03T08:13:52.078Z,10.84
2023-05-03T08:16:54.488Z,11.20
2023-05-03T08:19:57.279Z,11.34
2023-05-03T08:22:59.873Z,11.48
2023-05-03T08:26:04.339Z,11.53
2023-05-03T08:29:06.718Z,11.47
2023-05-03T08:32:09.116Z,11.58
2023-05-03T08:35:14.071Z,11.96
2023-05-03T08:38:16.485Z,12.58
2023-05-03T08:41:30.748Z,12.16
2023-05-03T08:44:38.425Z,11.73
2023-05-03T08:47:41.852Z,11.53
2023-05-03T08:50:44.753Z,11.95
2023-05-03T08:53:47.326Z,12.33
2023-05-03T08:56:50.490Z,12.40
2023-05-03T08:59:54.588Z,12.35
2023-05-03T09:02:57.095Z,12.36
2023-05-03T09:06:02.493Z,12.12
2023-05-03T09:09:07.639Z,11.90
2023-05-03T09:12:10.147Z,12.02
2023-05-03T09:15:22.425Z,12.35
2023-05-03T09:18:25.632Z,12.77
2023-05-03T09:21:28.919Z,12.97
2023-05-03T09:24:31.335Z,12.85
2023-05-03T09:27:33.803Z,12.72
2023-05-03T09:30:36.990Z,12.93
2023-05-03T09:33:39.333Z,13.46
2023-05-03T09:36:48.167Z,13.30
2023-05-03T09:40:07.840Z,13.06
2023-05-03T09:43:12.018Z,13.47
2023-05-03T09:46:14.755Z,13.69
2023-05-03T09:49:18.159Z,13.86
2023-05-03T09:52:22.798Z,13.85
2023-05-03T09:55:24.938Z,14.10
2023-05-03T09:58:28.984Z,13.88
2023-05-03T10:01:32.118Z,13.90
2023-05-03T10:04:44.326Z,14.00
2023-05-03T10:07:46.960Z,14.26
2023-05-03T10:10:52.188Z,14.26
2023-05-03T10:13:55.970Z,14.45
2023-05-03T10:17:04.399Z,14.01
2023-05-03T10:20:15.791Z,13.84
2023-05-03T10:23:18.478Z,14.41
2023-05-03T10:26:22.572Z,15.11
2023-05-03T10:29:37.720Z,15.24
2023-05-03T10:32:43.147Z,15.34
2023-05-03T10:35:53.409Z,15.34
2023-05-03T10:38:57.785Z,14.96
2023-05-03T10:42:00.018Z,14.79
2023-05-03T10:45:04.124Z,14.02
2023-05-03T10:48:12.562Z,13.90
2023-05-03T10:51:33.233Z,14.97
2023-05-03T10:54:35.772Z,14.89
2023-05-03T10:57:40.458Z,13.94
2023-05-03T11:00:44.697Z,14.15
2023-05-03T11:04:05.011Z,14.20
2023-05-03T11:07:07.471Z,14.54
2023-05-03T11:10:19.773Z,15.36
2023-05-03T11:13:22.098Z,15.66
2023-05-03T11:16:24.626Z,15.59
2023-05-03T11:19:27.082Z,15.45
2023-05-03T11:22:29.671Z,15.47
2023-05-03T11:25:33.504Z,15.66
2023-05-03T11:28:36.300Z,15.32
2023-05-03T11:31:38.847Z,15.91
2023-05-03T11:34:41.269Z,16.00
2023-05-03T11:37:44.654Z,16.18
2023-05-03T11:40:46.975Z,16.25
2023-05-03T11:44:00.543Z,16.42
2023-05-03T11:47:06.988Z,15.53
2023-05-03T11:50:09.888Z,15.25
2023-05-03T11:53:16.231Z,15.40
2023-05-03T11:56:22.937Z,15.77
2023-05-03T11:59:36.046Z,16.11
2023-05-03T12:02:38.573Z,16.82
2023-05-03T12:05:41.472Z,16.55
2023-05-03T12:08:45.166Z,16.69
2023-05-03T12:11:51.498Z,16.70
2023-05-03T12:15:03.654Z,16.75
2023-05-03T12:18:12.034Z,16.74
2023-05-03T12:24:24.576Z,16.33
2023-05-03T12:27:28.230Z,16.30
2023-05-03T12:30:33.656Z,16.55
2023-05-03T12:33:38.606Z,16.81
2023-05-03T12:36:43.872Z,17.03
2023-05-03T12:39:54.446Z,16.81
2023-05-03T12:43:06.075Z,16.99
2023-05-03T12:46:32.310Z,17.17
2023-05-03T12:49:30.902Z,17.07
2023-05-03T12:52:38.147Z,17.51
2023-05-03T12:55:43.354Z,17.68
2023-05-03T13:05:01.455Z,17.46
2023-05-03T13:11:09.883Z,17.21
2023-05-03T13:14:16.457Z,17.11
2023-05-03T13:17:23.490Z,16.52
2023-05-03T13:20:26.249Z,16.74
2023-05-03T13:23:28.534Z,17.09
2023-05-03T13:26:31.250Z,17.30
2023-05-03T13:29:33.576Z,17.14
2023-05-03T13:32:35.975Z,17.30
2023-05-03T13:35:38.299Z,17.34
2023-05-03T13:38:42.066Z,17.88
2023-05-03T13:41:45.346Z,17.49
2023-05-03T13:44:49.366Z,17.76
2023-05-03T13:50:56.893Z,18.41
2023-05-03T13:54:03.267Z,18.04
2023-05-03T13:57:05.649Z,17.64
2023-05-03T14:00:08.921Z,17.05
2023-05-03T14:03:12.077Z,16.93
2023-05-03T14:06:14.622Z,17.30
2023-05-03T14:09:17.033Z,16.86
2023-05-03T14:12:19.400Z,16.78
2023-05-03T14:15:21.806Z,16.95
2023-05-03T14:18:24.183Z,16.92
2023-05-03T14:21:27.288Z,17.00
2023-05-03T14:24:29.681Z,17.15
2023-05-03T14:27:31.992Z,17.48
2023-05-03T14:30:34.515Z,17.39
2023-05-03T14:33:37.193Z,16.69
2023-05-03T14:36:43.912Z,16.02
2023-05-03T14:39:46.416Z,15.70
2023-05-03T14:42:49.008Z,15.91
2023-05-03T14:45:51.331Z,16.37
2023-05-03T14:48:53.739Z,16.12
2023-05-03T14:51:56.611Z,16.25
2023-05-03T14:54:58.993Z,15.98
2023-05-03T14:58:01.336Z,15.76
2023-05-03T15:01:03.769Z,15.50
2023-05-03T15:04:08.010Z,15.48
2023-05-03T15:07:10.386Z,15.57
2023-05-03T15:10:13.003Z,15.68
2023-05-03T15:13:16.988Z,15.57
2023-05-03T15:16:19.661Z,15.20
2023-05-03T15:19:22.235Z,14.76
2023-05-03T15:22:24.555Z,14.47
2023-05-03T15:25:27.211Z,14.22
2023-05-03T15:28:29.510Z,14.12
2023-05-03T15:31:32.800Z,14.09
2023-05-03T15:34:35.461Z,14.27
2023-05-03T15:37:38.281Z,14.40
2023-05-03T15:40:41.373Z,14.88
2023-05-03T15:43:43.855Z,14.96
2023-05-03T15:46:46.228Z,14.93
2023-05-03T15:49:48.583Z,14.93
2023-05-03T15:52:50.992Z,14.83
2023-05-03T15:55:58.115Z,14.92
2023-05-03T15:59:00.472Z,14.76
2023-05-03T16:02:04.022Z,14.42
2023-05-03T16:05:06.610Z,14.00
2023-05-03T16:08:08.979Z,13.87
2023-05-03T16:11:12.849Z,13.55
2023-05-03T16:14:15.401Z,13.32
2023-05-03T16:17:17.759Z,13.18
2023-05-03T16:20:20.537Z,13.29
2023-05-03T16:23:22.837Z,13.12
2023-05-03T16:26:26.187Z,13.07
2023-05-03T16:29:29.376Z,12.90
2023-05-03T16:32:32.357Z,12.82
2023-05-03T16:35:34.842Z,12.64
2023-05-03T16:38:37.314Z,12.55
2023-05-03T16:41:40.110Z,12.50
2023-05-03T16:44:42.397Z,12.41
2023-05-03T16:47:47.185Z,12.30
2023-05-03T16:50:49.618Z,12.25
2023-05-03T16:53:52.393Z,12.17
2023-05-03T16:56:54.705Z,12.18
2023-05-03T16:59:57.225Z,12.16
2023-05-03T17:02:59.803Z,12.26
2023-05-03T17:06:03.738Z,12.33
2023-05-03T17:09:06.413Z,12.49
2023-05-03T17:12:08.868Z,12.53
2023-05-03T17:15:11.493Z,12.61
2023-05-03T17:18:13.907Z,12.58
2023-05-03T17:21:16.627Z,12.52
2023-05-03T17:24:18.900Z,12.60
2023-05-03T17:27:21.858Z,13.10
2023-05-03T17:30:24.200Z,13.17
2023-05-03T17:33:26.936Z,13.00
2023-05-03T17:36:29.507Z,12.78
2023-05-03T17:39:32.151Z,12.63
2023-05-03T17:42:35.116Z,12.58
2023-05-03T17:45:37.738Z,12.55
2023-05-03T17:48:43.627Z,12.36
2023-05-03T17:51:46.072Z,12.36
2023-05-03T17:54:48.583Z,12.42
2023-05-03T17:57:50.981Z,12.16
2023-05-03T18:00:53.254Z,12.15
2023-05-03T18:03:55.696Z,12.04
2023-05-03T18:06:58.091Z,12.01
2023-05-03T18:10:01.864Z,12.10
2023-05-03T18:13:05.130Z,12.12
2023-05-03T18:16:08.916Z,12.00
2023-05-03T18:19:12.675Z,12.03
2023-05-03T18:22:15.043Z,11.94
2023-05-03T18:25:17.856Z,11.94
2023-05-03T18:28:22.729Z,11.82
2023-05-03T18:31:25.157Z,11.77
2023-05-03T18:34:27.547Z,11.67
2023-05-03T18:37:29.958Z,11.51
2023-05-03T18:40:32.379Z,11.33
2023-05-03T18:43:38.183Z,11.18
2023-05-03T18:46:41.363Z,10.98
2023-05-03T18:49:48.481Z,10.82
2023-05-03T18:52:50.955Z,10.79
2023-05-03T18:55:53.165Z,10.68
2023-05-03T18:58:55.801Z,10.59
2023-05-03T19:01:58.075Z,10.34
2023-05-03T19:05:00.681Z,10.31
2023-05-03T19:08:03.294Z,10.14
2023-05-03T19:11:10.202Z,10.19
2023-05-03T19:14:13.138Z,10.11
2023-05-03T19:17:16.210Z,9.94
2023-05-03T19:20:18.632Z,9.87
2023-05-03T19:23:21.023Z,9.76
2023-05-03T19:26:23.286Z,9.44
2023-05-03T19:29:27.321Z,9.36
2023-05-03T19:32:29.922Z,9.24
2023-05-03T19:35:32.479Z,9.21
2023-05-03T19:38:38.222Z,9.12
2023-05-03T19:41:40.600Z,9.03
2023-05-03T19:44:42.906Z,9.13
2023-05-03T19:47:45.272Z,9.03
2023-05-03T19:50:47.835Z,9.17
2023-05-03T19:53:50.592Z,9.00
2023-05-03T19:56:52.914Z,8.92
2023-05-03T19:59:55.225Z,8.85
2023-05-03T20:02:57.657Z,8.50
2023-05-03T20:06:00.077Z,8.52
2023-05-03T20:09:02.806Z,8.70
2023-05-03T20:12:05.964Z,8.58
2023-05-03T20:15:08.829Z,8.39
2023-05-03T20:18:11.231Z,8.42
2023-05-03T20:21:14.004Z,8.28
2023-05-03T20:24:16.326Z,8.07
2023-05-03T20:27:18.574Z,8.12
2023-05-03T20:30:20.931Z,7.98
2023-05-03T20:33:23.265Z,7.90
2023-05-03T20:36:26.193Z,7.92
2023-05-03T20:39:28.511Z,7.83
2023-05-03T20:42:30.846Z,7.77
2023-05-03T20:45:33.225Z,7.71
2023-05-03T20:48:35.646Z,7.55
2023-05-03T20:51:38.081Z,7.39
2023-05-03T20:54:44.424Z,7.23
2023-05-03T20:57:47.477Z,7.08
2023-05-03T21:00:53.378Z,7.07
2023-05-03T21:03:56.976Z,7.07
2023-05-03T21:06:59.269Z,6.97
2023-05-03T21:10:01.704Z,6.98
2023-05-03T21:13:04.165Z,6.80
2023-05-03T21:16:09.169Z,6.78
2023-05-03T21:19:11.618Z,6.75
2023-05-03T21:22:13.963Z,6.74
2023-05-03T21:25:16.266Z,6.63
2023-05-03T21:28:18.646Z,6.45
2023-05-03T21:31:21.086Z,6.29
2023-05-03T21:34:23.397Z,6.15
2023-05-03T21:37:26.471Z,5.91
2023-05-03T21:40:28.700Z,6.05
2023-05-03T21:43:31.576Z,5.93
2023-05-03T21:46:34.250Z,5.66
2023-05-03T21:49:36.489Z,5.28
2023-05-03T21:52:38.876Z,4.98
2023-05-03T21:55:41.271Z,4.95
2023-05-03T21:58:46.712Z,4.96
2023-05-03T22:01:49.081Z,4.89
2023-05-03T22:04:51.604Z,4.83
2023-05-03T22:07:55.072Z,4.74
2023-05-03T22:10:57.495Z,4.88
2023-05-03T22:14:07.516Z,4.95
2023-05-03T22:17:10.581Z,4.97
2023-05-03T22:20:13.133Z,4.85
2023-05-03T22:23:15.783Z,4.64
2023-05-03T22:26:18.112Z,4.26
2023-05-03T22:29:20.481Z,4.11
2023-05-03T22:32:22.769Z,4.10
2023-05-03T22:35:25.455Z,4.05
2023-05-03T22:38:27.843Z,4.07
2023-05-03T22:41:30.167Z,4.02
2023-05-03T22:44:33.564Z,4.19
2023-05-03T22:47:35.928Z,4.18
2023-05-03T22:50:38.261Z,4.06
2023-05-03T22:53:40.630Z,4.04
2023-05-03T22:56:43.185Z,4.00
2023-05-03T22:59:45.776Z,4.20
2023-05-03T23:02:48.715Z,4.32
2023-05-03T23:05:52.982Z,4.37
2023-05-03T23:08:55.102Z,4.38
2023-05-03T23:11:57.506Z,4.49
2023-05-03T23:14:59.981Z,4.43
2023-05-03T23:18:02.623Z,4.60
2023-05-03T23:21:04.998Z,4.65
2023-05-03T23:24:07.925Z,4.69
2023-05-03T23:27:12.559Z,4.62
2023-05-03T23:30:15.608Z,4.64
2023-05-03T23:33:18.527Z,4.65
2023-05-03T23:36:21.234Z,4.92
2023-05-03T23:39:23.584Z,4.95
2023-05-03T23:42:25.872Z,4.88
2023-05-03T23:45:28.229Z,4.90
2023-05-03T23:48:31.580Z,4.80
2023-05-03T23:51:34.696Z,5.02
2023-05-03T23:54:37.043Z,4.82
2023-05-03T23:57:39.425Z,5.00
